sensor_id;sensor_type;location;lat;lon;timestamp;temperature;humidity
10417;DHT22;62605;49.432;8.680;2024-02-28T00:00:37;5.50;99.90
10417;DHT22;62605;49.432;8.680;2024-02-28T00:03:05;5.40;99.90
10417;DHT22;62605;49.432;8.680;2024-02-28T00:05:35;5.40;99.90
10417;DHT22;62605;49.432;8.680;2024-02-28T00:08:04;5.30;99.90
10417;DHT22;62605;49.432;8.680;2024-02-28T00:10:32;5.20;99.90
10417;DHT22;62605;49.432;8.680;2024-02-28T00:13:02;5.20;99.90
10417;DHT22;62605;49.432;8.680;2024-02-28T00:15:30;5.10;99.90
10417;DHT22;62605;49.432;8.680;2024-02-28T00:17:58;5.10;99.90
10417;DHT22;62605;49.432;8.680;2024-02-28T00:20:25;5.10;99.90
10417;DHT22;62605;49.432;8.680;2024-02-28T00:22:55;5.10;99.90
10417;DHT22;62605;49.432;8.680;2024-02-28T00:25:23;5.10;99.90
10417;DHT22;62605;49.432;8.680;2024-02-28T00:27:53;5.00;99.90
10417;DHT22;62605;49.432;8.680;2024-02-28T00:30:24;5.00;99.90
10417;DHT22;62605;49.432;8.680;2024-02-28T00:32:54;5.00;99.90
10417;DHT22;62605;49.432;8.680;2024-02-28T00:35:21;5.00;99.90
10417;DHT22;62605;49.432;8.680;2024-02-28T00:37:48;4.90;99.90
10417;DHT22;62605;49.432;8.680;2024-02-28T00:40:16;4.90;99.90
10417;DHT22;62605;49.432;8.680;2024-02-28T00:42:44;4.90;99.90
10417;DHT22;62605;49.432;8.680;2024-02-28T00:45:12;4.80;99.90
10417;DHT22;62605;49.432;8.680;2024-02-28T00:47:47;4.80;99.90
10417;DHT22;62605;49.432;8.680;2024-02-28T00:50:14;4.80;99.90
10417;DHT22;62605;49.432;8.680;2024-02-28T00:52:42;4.80;99.90
10417;DHT22;62605;49.432;8.680;2024-02-28T00:55:09;4.70;99.90
10417;DHT22;62605;49.432;8.680;2024-02-28T00:57:37;4.80;99.90
10417;DHT22;62605;49.432;8.680;2024-02-28T01:00:07;4.80;99.90
10417;DHT22;62605;49.432;8.680;2024-02-28T01:02:36;4.70;99.90
10417;DHT22;62605;49.432;8.680;2024-02-28T01:05:06;4.60;99.90
10417;DHT22;62605;49.432;8.680;2024-02-28T01:07:33;4.60;99.90
10417;DHT22;62605;49.432;8.680;2024-02-28T01:10:01;4.50;99.90
10417;DHT22;62605;49.432;8.680;2024-02-28T01:12:29;4.50;99.90
10417;DHT22;62605;49.432;8.680;2024-02-28T01:14:56;4.50;99.90
10417;DHT22;62605;49.432;8.680;2024-02-28T01:17:24;4.40;99.90
10417;DHT22;62605;49.432;8.680;2024-02-28T01:19:51;4.40;99.90
10417;DHT22;62605;49.432;8.680;2024-02-28T01:22:20;4.40;99.90
10417;DHT22;62605;49.432;8.680;2024-02-28T01:24:48;4.20;99.90
10417;DHT22;62605;49.432;8.680;2024-02-28T01:27:16;4.10;99.90
10417;DHT22;62605;49.432;8.680;2024-02-28T01:29:43;4.00;99.90
10417;DHT22;62605;49.432;8.680;2024-02-28T01:32:11;4.00;99.90
10417;DHT22;62605;49.432;8.680;2024-02-28T01:34:39;4.00;99.90
10417;DHT22;62605;49.432;8.680;2024-02-28T01:37:06;4.00;99.90
10417;DHT22;62605;49.432;8.680;2024-02-28T01:39:35;3.90;99.90
10417;DHT22;62605;49.432;8.680;2024-02-28T01:42:03;4.00;99.90
10417;DHT22;62605;49.432;8.680;2024-02-28T01:44:30;3.90;99.90
10417;DHT22;62605;49.432;8.680;2024-02-28T01:46:58;3.90;99.90
10417;DHT22;62605;49.432;8.680;2024-02-28T01:49:26;3.90;99.90
10417;DHT22;62605;49.432;8.680;2024-02-28T01:51:55;3.90;99.90
10417;DHT22;62605;49.432;8.680;2024-02-28T01:54:23;3.90;99.90
10417;DHT22;62605;49.432;8.680;2024-02-28T01:56:52;3.90;99.90
10417;DHT22;62605;49.432;8.680;2024-02-28T01:59:19;3.80;99.90
10417;DHT22;62605;49.432;8.680;2024-02-28T02:01:49;3.80;99.90
10417;DHT22;62605;49.432;8.680;2024-02-28T02:04:20;3.80;99.90
10417;DHT22;62605;49.432;8.680;2024-02-28T02:06:49;3.80;99.90
10417;DHT22;62605;49.432;8.680;2024-02-28T02:09:18;3.80;99.90
10417;DHT22;62605;49.432;8.680;2024-02-28T02:11:46;3.70;99.90
10417;DHT22;62605;49.432;8.680;2024-02-28T02:14:16;3.60;99.90
10417;DHT22;62605;49.432;8.680;2024-02-28T02:16:43;3.50;99.90
10417;DHT22;62605;49.432;8.680;2024-02-28T02:19:12;3.60;99.90
10417;DHT22;62605;49.432;8.680;2024-02-28T02:21:43;3.50;99.90
10417;DHT22;62605;49.432;8.680;2024-02-28T02:24:17;3.50;99.90
10417;DHT22;62605;49.432;8.680;2024-02-28T02:26:45;3.60;99.90
10417;DHT22;62605;49.432;8.680;2024-02-28T02:29:13;3.50;99.90
10417;DHT22;62605;49.432;8.680;2024-02-28T02:31:41;3.40;99.90
10417;DHT22;62605;49.432;8.680;2024-02-28T02:34:09;3.50;99.90
10417;DHT22;62605;49.432;8.680;2024-02-28T02:36:36;3.60;99.90
10417;DHT22;62605;49.432;8.680;2024-02-28T02:39:04;3.50;99.90
10417;DHT22;62605;49.432;8.680;2024-02-28T02:41:35;3.50;99.90
10417;DHT22;62605;49.432;8.680;2024-02-28T02:44:03;3.50;99.90
10417;DHT22;62605;49.432;8.680;2024-02-28T02:46:36;3.50;99.90
10417;DHT22;62605;49.432;8.680;2024-02-28T02:49:05;3.40;99.90
10417;DHT22;62605;49.432;8.680;2024-02-28T02:51:32;3.40;99.90
10417;DHT22;62605;49.432;8.680;2024-02-28T02:54:00;3.50;99.90
10417;DHT22;62605;49.432;8.680;2024-02-28T02:56:27;3.50;99.90
10417;DHT22;62605;49.432;8.680;2024-02-28T02:58:56;3.50;99.90
10417;DHT22;62605;49.432;8.680;2024-02-28T03:01:24;3.50;99.90
10417;DHT22;62605;49.432;8.680;2024-02-28T03:03:52;3.50;99.90
10417;DHT22;62605;49.432;8.680;2024-02-28T03:06:20;3.50;99.90
10417;DHT22;62605;49.432;8.680;2024-02-28T03:08:49;3.50;99.90
10417;DHT22;62605;49.432;8.680;2024-02-28T03:11:17;3.60;99.90
10417;DHT22;62605;49.432;8.680;2024-02-28T03:13:45;3.60;99.90
10417;DHT22;62605;49.432;8.680;2024-02-28T03:16:14;3.50;99.90
10417;DHT22;62605;49.432;8.680;2024-02-28T03:18:42;3.50;99.90
10417;DHT22;62605;49.432;8.680;2024-02-28T03:21:09;3.50;99.90
10417;DHT22;62605;49.432;8.680;2024-02-28T03:23:38;3.60;99.90
10417;DHT22;62605;49.432;8.680;2024-02-28T03:26:06;3.60;99.90
10417;DHT22;62605;49.432;8.680;2024-02-28T03:28:33;3.70;99.90
10417;DHT22;62605;49.432;8.680;2024-02-28T03:31:02;3.70;99.90
10417;DHT22;62605;49.432;8.680;2024-02-28T03:33:32;3.60;99.90
10417;DHT22;62605;49.432;8.680;2024-02-28T03:36:01;3.50;99.90
10417;DHT22;62605;49.432;8.680;2024-02-28T03:38:29;3.20;99.90
10417;DHT22;62605;49.432;8.680;2024-02-28T03:40:56;3.20;99.90
10417;DHT22;62605;49.432;8.680;2024-02-28T03:43:25;3.10;99.90
10417;DHT22;62605;49.432;8.680;2024-02-28T03:45:54;3.00;99.90
10417;DHT22;62605;49.432;8.680;2024-02-28T03:48:23;3.00;99.90
10417;DHT22;62605;49.432;8.680;2024-02-28T03:50:52;3.00;99.90
10417;DHT22;62605;49.432;8.680;2024-02-28T03:53:20;3.00;99.90
10417;DHT22;62605;49.432;8.680;2024-02-28T03:55:48;3.00;99.90
10417;DHT22;62605;49.432;8.680;2024-02-28T03:58:16;3.00;99.90
10417;DHT22;62605;49.432;8.680;2024-02-28T04:00:44;3.10;99.90
10417;DHT22;62605;49.432;8.680;2024-02-28T04:03:11;3.10;99.90
10417;DHT22;62605;49.432;8.680;2024-02-28T04:05:40;3.10;99.90
10417;DHT22;62605;49.432;8.680;2024-02-28T04:08:10;3.00;99.90
10417;DHT22;62605;49.432;8.680;2024-02-28T04:10:38;2.90;99.90
10417;DHT22;62605;49.432;8.680;2024-02-28T04:13:05;2.90;99.90
10417;DHT22;62605;49.432;8.680;2024-02-28T04:15:33;2.80;99.90
10417;DHT22;62605;49.432;8.680;2024-02-28T04:18:00;2.90;99.90
10417;DHT22;62605;49.432;8.680;2024-02-28T04:20:28;2.80;99.90
10417;DHT22;62605;49.432;8.680;2024-02-28T04:22:56;2.80;99.90
10417;DHT22;62605;49.432;8.680;2024-02-28T04:25:25;2.80;99.90
10417;DHT22;62605;49.432;8.680;2024-02-28T04:27:53;2.90;99.90
10417;DHT22;62605;49.432;8.680;2024-02-28T04:30:20;2.80;99.90
10417;DHT22;62605;49.432;8.680;2024-02-28T04:32:48;2.80;99.90
10417;DHT22;62605;49.432;8.680;2024-02-28T04:35:16;2.80;99.90
10417;DHT22;62605;49.432;8.680;2024-02-28T04:37:45;2.80;99.90
10417;DHT22;62605;49.432;8.680;2024-02-28T04:40:14;2.90;99.90
10417;DHT22;62605;49.432;8.680;2024-02-28T04:42:43;2.80;99.90
10417;DHT22;62605;49.432;8.680;2024-02-28T04:45:11;2.90;99.90
10417;DHT22;62605;49.432;8.680;2024-02-28T04:47:39;2.80;99.90
10417;DHT22;62605;49.432;8.680;2024-02-28T04:50:07;2.80;99.90
10417;DHT22;62605;49.432;8.680;2024-02-28T04:52:35;2.90;99.90
10417;DHT22;62605;49.432;8.680;2024-02-28T04:55:03;2.90;99.90
10417;DHT22;62605;49.432;8.680;2024-02-28T04:57:31;2.90;99.90
10417;DHT22;62605;49.432;8.680;2024-02-28T05:00:00;2.90;99.90
10417;DHT22;62605;49.432;8.680;2024-02-28T05:02:30;2.90;99.90
10417;DHT22;62605;49.432;8.680;2024-02-28T05:05:00;2.90;99.90
10417;DHT22;62605;49.432;8.680;2024-02-28T05:07:34;2.70;99.90
10417;DHT22;62605;49.432;8.680;2024-02-28T05:10:06;2.50;99.90
10417;DHT22;62605;49.432;8.680;2024-02-28T05:12:38;2.20;99.90
10417;DHT22;62605;49.432;8.680;2024-02-28T05:15:12;2.20;99.90
10417;DHT22;62605;49.432;8.680;2024-02-28T05:17:45;2.10;99.90
10417;DHT22;62605;49.432;8.680;2024-02-28T05:20:25;2.20;99.90
10417;DHT22;62605;49.432;8.680;2024-02-28T05:22:58;2.20;99.90
10417;DHT22;62605;49.432;8.680;2024-02-28T05:25:29;2.20;99.90
10417;DHT22;62605;49.432;8.680;2024-02-28T05:28:00;2.20;99.90
10417;DHT22;62605;49.432;8.680;2024-02-28T05:30:33;2.20;99.90
10417;DHT22;62605;49.432;8.680;2024-02-28T05:33:05;2.30;99.90
10417;DHT22;62605;49.432;8.680;2024-02-28T05:35:35;2.40;99.90
10417;DHT22;62605;49.432;8.680;2024-02-28T05:38:06;2.40;99.90
10417;DHT22;62605;49.432;8.680;2024-02-28T05:40:36;2.50;99.90
10417;DHT22;62605;49.432;8.680;2024-02-28T05:43:07;2.60;99.90
10417;DHT22;62605;49.432;8.680;2024-02-28T05:45:39;2.60;99.90
10417;DHT22;62605;49.432;8.680;2024-02-28T05:48:09;2.60;99.90
10417;DHT22;62605;49.432;8.680;2024-02-28T05:50:47;2.60;99.90
10417;DHT22;62605;49.432;8.680;2024-02-28T05:53:36;2.70;99.90
10417;DHT22;62605;49.432;8.680;2024-02-28T05:56:06;2.60;99.90
10417;DHT22;62605;49.432;8.680;2024-02-28T05:58:39;2.40;99.90
10417;DHT22;62605;49.432;8.680;2024-02-28T06:01:08;2.40;99.90
10417;DHT22;62605;49.432;8.680;2024-02-28T06:03:35;2.40;99.90
10417;DHT22;62605;49.432;8.680;2024-02-28T06:06:03;2.30;99.90
10417;DHT22;62605;49.432;8.680;2024-02-28T06:08:32;2.20;99.90
10417;DHT22;62605;49.432;8.680;2024-02-28T06:10:59;2.10;99.90
10417;DHT22;62605;49.432;8.680;2024-02-28T06:13:27;2.00;99.90
10417;DHT22;62605;49.432;8.680;2024-02-28T06:15:57;2.00;99.90
10417;DHT22;62605;49.432;8.680;2024-02-28T06:18:26;2.10;99.90
10417;DHT22;62605;49.432;8.680;2024-02-28T06:20:53;2.10;99.90
10417;DHT22;62605;49.432;8.680;2024-02-28T06:23:24;2.20;99.90
10417;DHT22;62605;49.432;8.680;2024-02-28T06:25:51;2.30;99.90
10417;DHT22;62605;49.432;8.680;2024-02-28T06:28:21;2.40;99.90
10417;DHT22;62605;49.432;8.680;2024-02-28T06:30:48;2.50;99.90
10417;DHT22;62605;49.432;8.680;2024-02-28T06:33:15;2.50;99.90
10417;DHT22;62605;49.432;8.680;2024-02-28T06:35:44;2.50;99.90
10417;DHT22;62605;49.432;8.680;2024-02-28T06:38:11;2.40;99.90
10417;DHT22;62605;49.432;8.680;2024-02-28T06:40:38;2.50;99.90
10417;DHT22;62605;49.432;8.680;2024-02-28T06:43:05;2.60;99.90
10417;DHT22;62605;49.432;8.680;2024-02-28T06:45:33;2.70;99.90
10417;DHT22;62605;49.432;8.680;2024-02-28T06:48:00;2.70;99.90
10417;DHT22;62605;49.432;8.680;2024-02-28T06:50:30;2.70;99.90
10417;DHT22;62605;49.432;8.680;2024-02-28T06:52:59;2.70;99.90
10417;DHT22;62605;49.432;8.680;2024-02-28T06:55:26;2.80;99.90
10417;DHT22;62605;49.432;8.680;2024-02-28T06:57:53;2.80;99.90
10417;DHT22;62605;49.432;8.680;2024-02-28T07:00:22;2.80;99.90
10417;DHT22;62605;49.432;8.680;2024-02-28T07:02:50;2.70;99.90
10417;DHT22;62605;49.432;8.680;2024-02-28T07:05:19;2.50;99.90
10417;DHT22;62605;49.432;8.680;2024-02-28T07:07:46;2.40;99.90
10417;DHT22;62605;49.432;8.680;2024-02-28T07:10:15;2.10;99.90
10417;DHT22;62605;49.432;8.680;2024-02-28T07:12:42;2.00;99.90
10417;DHT22;62605;49.432;8.680;2024-02-28T07:15:09;2.10;99.90
10417;DHT22;62605;49.432;8.680;2024-02-28T07:17:37;2.20;99.90
10417;DHT22;62605;49.432;8.680;2024-02-28T07:20:05;2.40;99.90
10417;DHT22;62605;49.432;8.680;2024-02-28T07:22:34;2.50;99.90
10417;DHT22;62605;49.432;8.680;2024-02-28T07:25:02;2.50;99.90
10417;DHT22;62605;49.432;8.680;2024-02-28T07:27:31;2.50;99.90
10417;DHT22;62605;49.432;8.680;2024-02-28T07:30:04;2.70;99.90
10417;DHT22;62605;49.432;8.680;2024-02-28T07:32:32;2.70;99.90
10417;DHT22;62605;49.432;8.680;2024-02-28T07:35:00;2.80;99.90
10417;DHT22;62605;49.432;8.680;2024-02-28T07:37:27;2.90;99.90
10417;DHT22;62605;49.432;8.680;2024-02-28T07:39:54;2.90;99.90
10417;DHT22;62605;49.432;8.680;2024-02-28T07:42:21;3.00;99.90
10417;DHT22;62605;49.432;8.680;2024-02-28T07:44:50;3.10;99.90
10417;DHT22;62605;49.432;8.680;2024-02-28T07:47:22;3.30;99.90
10417;DHT22;62605;49.432;8.680;2024-02-28T07:49:50;3.40;99.90
10417;DHT22;62605;49.432;8.680;2024-02-28T07:52:17;3.50;99.90
10417;DHT22;62605;49.432;8.680;2024-02-28T07:54:44;3.60;99.90
10417;DHT22;62605;49.432;8.680;2024-02-28T07:57:11;3.80;99.90
10417;DHT22;62605;49.432;8.680;2024-02-28T07:59:39;3.90;99.90
10417;DHT22;62605;49.432;8.680;2024-02-28T08:02:08;4.00;99.90
10417;DHT22;62605;49.432;8.680;2024-02-28T08:04:37;4.00;99.90
10417;DHT22;62605;49.432;8.680;2024-02-28T08:07:04;3.80;99.90
10417;DHT22;62605;49.432;8.680;2024-02-28T08:09:31;3.80;99.90
10417;DHT22;62605;49.432;8.680;2024-02-28T08:11:58;3.80;99.90
10417;DHT22;62605;49.432;8.680;2024-02-28T08:14:27;3.80;99.90
10417;DHT22;62605;49.432;8.680;2024-02-28T08:16:54;4.00;99.90
10417;DHT22;62605;49.432;8.680;2024-02-28T08:19:23;4.30;99.90
10417;DHT22;62605;49.432;8.680;2024-02-28T08:21:50;4.30;99.90
10417;DHT22;62605;49.432;8.680;2024-02-28T08:24:17;4.50;99.90
10417;DHT22;62605;49.432;8.680;2024-02-28T08:26:44;4.60;99.90
10417;DHT22;62605;49.432;8.680;2024-02-28T08:29:11;4.50;99.90
10417;DHT22;62605;49.432;8.680;2024-02-28T08:31:43;4.40;99.90
10417;DHT22;62605;49.432;8.680;2024-02-28T08:34:10;4.40;99.90
10417;DHT22;62605;49.432;8.680;2024-02-28T08:36:38;4.40;99.90
10417;DHT22;62605;49.432;8.680;2024-02-28T08:39:06;4.50;99.90
10417;DHT22;62605;49.432;8.680;2024-02-28T08:41:35;4.50;99.90
10417;DHT22;62605;49.432;8.680;2024-02-28T08:44:02;4.60;99.90
10417;DHT22;62605;49.432;8.680;2024-02-28T08:46:29;4.70;99.90
10417;DHT22;62605;49.432;8.680;2024-02-28T08:48:56;4.80;99.90
10417;DHT22;62605;49.432;8.680;2024-02-28T08:51:23;4.90;99.90
10417;DHT22;62605;49.432;8.680;2024-02-28T08:53:51;5.10;99.90
10417;DHT22;62605;49.432;8.680;2024-02-28T08:56:19;5.30;99.90
10417;DHT22;62605;49.432;8.680;2024-02-28T08:58:46;5.10;99.90
10417;DHT22;62605;49.432;8.680;2024-02-28T09:01:14;5.30;99.90
10417;DHT22;62605;49.432;8.680;2024-02-28T09:03:42;5.30;99.90
10417;DHT22;62605;49.432;8.680;2024-02-28T09:06:09;5.20;99.90
10417;DHT22;62605;49.432;8.680;2024-02-28T09:08:37;5.20;99.90
10417;DHT22;62605;49.432;8.680;2024-02-28T09:11:05;5.30;99.90
10417;DHT22;62605;49.432;8.680;2024-02-28T09:13:33;5.30;99.90
10417;DHT22;62605;49.432;8.680;2024-02-28T09:16:02;5.50;99.90
10417;DHT22;62605;49.432;8.680;2024-02-28T09:18:29;5.40;99.90
10417;DHT22;62605;49.432;8.680;2024-02-28T09:20:56;5.50;99.90
10417;DHT22;62605;49.432;8.680;2024-02-28T09:23:24;5.50;99.90
10417;DHT22;62605;49.432;8.680;2024-02-28T09:25:55;5.30;99.90
10417;DHT22;62605;49.432;8.680;2024-02-28T09:28:24;5.30;99.90
10417;DHT22;62605;49.432;8.680;2024-02-28T09:30:52;5.60;99.90
10417;DHT22;62605;49.432;8.680;2024-02-28T09:33:19;5.70;99.90
10417;DHT22;62605;49.432;8.680;2024-02-28T09:35:47;5.80;99.90
10417;DHT22;62605;49.432;8.680;2024-02-28T09:38:14;5.90;99.90
10417;DHT22;62605;49.432;8.680;2024-02-28T09:40:41;5.70;99.90
10417;DHT22;62605;49.432;8.680;2024-02-28T09:43:15;5.70;99.90
10417;DHT22;62605;49.432;8.680;2024-02-28T09:45:44;5.80;99.90
10417;DHT22;62605;49.432;8.680;2024-02-28T09:48:11;6.00;99.90
10417;DHT22;62605;49.432;8.680;2024-02-28T09:50:39;5.90;99.90
10417;DHT22;62605;49.432;8.680;2024-02-28T09:53:06;6.10;99.90
10417;DHT22;62605;49.432;8.680;2024-02-28T09:55:34;6.10;99.90
10417;DHT22;62605;49.432;8.680;2024-02-28T09:58:01;6.40;99.90
10417;DHT22;62605;49.432;8.680;2024-02-28T10:00:29;6.60;99.90
10417;DHT22;62605;49.432;8.680;2024-02-28T10:02:58;6.50;99.90
10417;DHT22;62605;49.432;8.680;2024-02-28T10:05:26;6.80;99.90
10417;DHT22;62605;49.432;8.680;2024-02-28T10:07:55;6.70;99.90
10417;DHT22;62605;49.432;8.680;2024-02-28T10:10:22;6.90;99.90
10417;DHT22;62605;49.432;8.680;2024-02-28T10:12:54;7.00;99.90
10417;DHT22;62605;49.432;8.680;2024-02-28T10:15:21;6.80;99.90
10417;DHT22;62605;49.432;8.680;2024-02-28T10:17:48;6.80;99.90
10417;DHT22;62605;49.432;8.680;2024-02-28T10:20:17;6.70;99.90
10417;DHT22;62605;49.432;8.680;2024-02-28T10:22:45;6.60;99.90
10417;DHT22;62605;49.432;8.680;2024-02-28T10:25:12;6.50;99.90
10417;DHT22;62605;49.432;8.680;2024-02-28T10:27:40;6.30;99.90
10417;DHT22;62605;49.432;8.680;2024-02-28T10:30:08;6.70;99.90
10417;DHT22;62605;49.432;8.680;2024-02-28T10:32:35;7.00;99.90
10417;DHT22;62605;49.432;8.680;2024-02-28T10:35:06;7.00;99.90
10417;DHT22;62605;49.432;8.680;2024-02-28T10:37:35;7.10;99.90
10417;DHT22;62605;49.432;8.680;2024-02-28T10:40:05;7.30;99.90
10417;DHT22;62605;49.432;8.680;2024-02-28T10:42:32;7.10;99.90
10417;DHT22;62605;49.432;8.680;2024-02-28T10:45:02;7.00;99.90
10417;DHT22;62605;49.432;8.680;2024-02-28T10:47:29;7.10;99.90
10417;DHT22;62605;49.432;8.680;2024-02-28T10:49:57;7.10;99.90
10417;DHT22;62605;49.432;8.680;2024-02-28T10:52:25;7.20;99.90
10417;DHT22;62605;49.432;8.680;2024-02-28T10:54:55;7.30;99.90
10417;DHT22;62605;49.432;8.680;2024-02-28T10:57:24;7.20;99.90
10417;DHT22;62605;49.432;8.680;2024-02-28T10:59:53;7.30;99.90
10417;DHT22;62605;49.432;8.680;2024-02-28T11:02:22;7.30;99.90
10417;DHT22;62605;49.432;8.680;2024-02-28T11:04:51;7.40;99.90
10417;DHT22;62605;49.432;8.680;2024-02-28T11:07:22;7.50;99.90
10417;DHT22;62605;49.432;8.680;2024-02-28T11:09:55;7.20;99.90
10417;DHT22;62605;49.432;8.680;2024-02-28T11:12:26;7.30;99.90
10417;DHT22;62605;49.432;8.680;2024-02-28T11:15:01;7.50;99.90
10417;DHT22;62605;49.432;8.680;2024-02-28T11:17:29;7.50;99.90
10417;DHT22;62605;49.432;8.680;2024-02-28T11:19:57;7.50;99.90
10417;DHT22;62605;49.432;8.680;2024-02-28T11:22:27;7.80;99.90
10417;DHT22;62605;49.432;8.680;2024-02-28T11:24:56;8.00;99.90
10417;DHT22;62605;49.432;8.680;2024-02-28T11:27:23;7.80;99.90
10417;DHT22;62605;49.432;8.680;2024-02-28T11:29:51;8.00;99.90
10417;DHT22;62605;49.432;8.680;2024-02-28T11:32:18;8.10;99.90
10417;DHT22;62605;49.432;8.680;2024-02-28T11:34:46;8.10;99.90
10417;DHT22;62605;49.432;8.680;2024-02-28T11:37:13;8.10;99.90
10417;DHT22;62605;49.432;8.680;2024-02-28T11:39:46;8.10;99.90
10417;DHT22;62605;49.432;8.680;2024-02-28T11:42:16;8.30;99.90
10417;DHT22;62605;49.432;8.680;2024-02-28T11:44:43;8.40;99.90
10417;DHT22;62605;49.432;8.680;2024-02-28T11:47:19;8.30;99.90
10417;DHT22;62605;49.432;8.680;2024-02-28T11:49:47;8.20;99.90
10417;DHT22;62605;49.432;8.680;2024-02-28T11:52:14;8.30;99.90
10417;DHT22;62605;49.432;8.680;2024-02-28T11:54:42;8.40;99.90
10417;DHT22;62605;49.432;8.680;2024-02-28T11:57:11;8.70;99.90
10417;DHT22;62605;49.432;8.680;2024-02-28T11:59:41;8.80;99.90
10417;DHT22;62605;49.432;8.680;2024-02-28T12:02:12;8.90;99.90
10417;DHT22;62605;49.432;8.680;2024-02-28T12:04:41;8.90;99.90
10417;DHT22;62605;49.432;8.680;2024-02-28T12:07:08;8.80;99.90
10417;DHT22;62605;49.432;8.680;2024-02-28T12:09:36;9.00;99.90
10417;DHT22;62605;49.432;8.680;2024-02-28T12:12:06;9.20;99.90
10417;DHT22;62605;49.432;8.680;2024-02-28T12:14:36;9.10;99.90
10417;DHT22;62605;49.432;8.680;2024-02-28T12:17:06;9.20;99.90
10417;DHT22;62605;49.432;8.680;2024-02-28T12:19:35;9.10;99.90
10417;DHT22;62605;49.432;8.680;2024-02-28T12:22:02;9.20;99.90
10417;DHT22;62605;49.432;8.680;2024-02-28T12:24:30;9.10;99.90
10417;DHT22;62605;49.432;8.680;2024-02-28T12:26:57;9.20;99.90
10417;DHT22;62605;49.432;8.680;2024-02-28T12:29:24;9.40;99.90
10417;DHT22;62605;49.432;8.680;2024-02-28T12:31:52;9.30;99.90
10417;DHT22;62605;49.432;8.680;2024-02-28T12:34:21;9.40;99.90
10417;DHT22;62605;49.432;8.680;2024-02-28T12:36:48;9.30;99.90
10417;DHT22;62605;49.432;8.680;2024-02-28T12:39:15;9.50;99.90
10417;DHT22;62605;49.432;8.680;2024-02-28T12:41:42;9.50;99.90
10417;DHT22;62605;49.432;8.680;2024-02-28T12:44:09;9.20;99.90
10417;DHT22;62605;49.432;8.680;2024-02-28T12:46:37;9.50;99.90
10417;DHT22;62605;49.432;8.680;2024-02-28T12:49:04;9.60;99.90
10417;DHT22;62605;49.432;8.680;2024-02-28T12:51:40;9.70;99.90
10417;DHT22;62605;49.432;8.680;2024-02-28T12:54:07;9.70;99.90
10417;DHT22;62605;49.432;8.680;2024-02-28T12:56:35;9.70;99.90
10417;DHT22;62605;49.432;8.680;2024-02-28T12:59:02;9.60;99.90
10417;DHT22;62605;49.432;8.680;2024-02-28T13:01:30;9.70;99.90
10417;DHT22;62605;49.432;8.680;2024-02-28T13:03:57;9.90;99.90
10417;DHT22;62605;49.432;8.680;2024-02-28T13:06:24;9.90;99.90
10417;DHT22;62605;49.432;8.680;2024-02-28T13:08:52;10.10;99.90
10417;DHT22;62605;49.432;8.680;2024-02-28T13:11:19;10.20;99.90
10417;DHT22;62605;49.432;8.680;2024-02-28T13:13:47;10.00;99.90
10417;DHT22;62605;49.432;8.680;2024-02-28T13:16:15;10.00;99.90
10417;DHT22;62605;49.432;8.680;2024-02-28T13:18:42;10.00;99.90
10417;DHT22;62605;49.432;8.680;2024-02-28T13:21:10;10.00;99.90
10417;DHT22;62605;49.432;8.680;2024-02-28T13:23:37;9.90;99.90
10417;DHT22;62605;49.432;8.680;2024-02-28T13:26:06;10.10;99.90
10417;DHT22;62605;49.432;8.680;2024-02-28T13:28:35;10.20;99.90
10417;DHT22;62605;49.432;8.680;2024-02-28T13:31:03;10.30;99.90
10417;DHT22;62605;49.432;8.680;2024-02-28T13:33:31;10.00;99.90
10417;DHT22;62605;49.432;8.680;2024-02-28T13:35:58;10.10;99.90
10417;DHT22;62605;49.432;8.680;2024-02-28T13:38:28;10.20;99.90
10417;DHT22;62605;49.432;8.680;2024-02-28T13:40:56;10.20;99.90
10417;DHT22;62605;49.432;8.680;2024-02-28T13:43:25;10.20;99.90
10417;DHT22;62605;49.432;8.680;2024-02-28T13:45:52;10.40;99.90
10417;DHT22;62605;49.432;8.680;2024-02-28T13:48:22;10.40;99.90
10417;DHT22;62605;49.432;8.680;2024-02-28T13:50:51;10.30;99.90
10417;DHT22;62605;49.432;8.680;2024-02-28T13:53:18;10.40;99.90
10417;DHT22;62605;49.432;8.680;2024-02-28T13:55:45;10.50;99.90
10417;DHT22;62605;49.432;8.680;2024-02-28T13:58:13;10.60;99.90
10417;DHT22;62605;49.432;8.680;2024-02-28T14:00:46;10.60;99.90
10417;DHT22;62605;49.432;8.680;2024-02-28T14:03:17;10.70;99.90
10417;DHT22;62605;49.432;8.680;2024-02-28T14:05:47;10.70;99.90
10417;DHT22;62605;49.432;8.680;2024-02-28T14:08:15;10.60;99.90
10417;DHT22;62605;49.432;8.680;2024-02-28T14:10:42;10.70;99.90
10417;DHT22;62605;49.432;8.680;2024-02-28T14:13:10;10.80;99.90
10417;DHT22;62605;49.432;8.680;2024-02-28T14:15:38;10.60;99.90
10417;DHT22;62605;49.432;8.680;2024-02-28T14:18:06;10.40;99.90
10417;DHT22;62605;49.432;8.680;2024-02-28T14:20:34;10.30;99.90
10417;DHT22;62605;49.432;8.680;2024-02-28T14:23:01;10.40;99.90
10417;DHT22;62605;49.432;8.680;2024-02-28T14:25:29;10.40;99.90
10417;DHT22;62605;49.432;8.680;2024-02-28T14:27:56;10.40;99.90
10417;DHT22;62605;49.432;8.680;2024-02-28T14:30:24;10.60;99.90
10417;DHT22;62605;49.432;8.680;2024-02-28T14:32:51;10.80;99.90
10417;DHT22;62605;49.432;8.680;2024-02-28T14:35:20;10.60;99.90
10417;DHT22;62605;49.432;8.680;2024-02-28T14:37:48;10.60;99.90
10417;DHT22;62605;49.432;8.680;2024-02-28T14:40:15;10.80;99.90
10417;DHT22;62605;49.432;8.680;2024-02-28T14:42:43;11.00;99.90
10417;DHT22;62605;49.432;8.680;2024-02-28T14:45:12;11.00;99.90
10417;DHT22;62605;49.432;8.680;2024-02-28T14:47:41;10.90;99.90
10417;DHT22;62605;49.432;8.680;2024-02-28T14:50:10;10.90;99.90
10417;DHT22;62605;49.432;8.680;2024-02-28T14:52:39;10.70;99.90
10417;DHT22;62605;49.432;8.680;2024-02-28T14:55:12;10.80;99.90
10417;DHT22;62605;49.432;8.680;2024-02-28T14:57:41;10.70;99.90
10417;DHT22;62605;49.432;8.680;2024-02-28T15:00:10;10.60;99.90
10417;DHT22;62605;49.432;8.680;2024-02-28T15:02:41;10.70;99.90
10417;DHT22;62605;49.432;8.680;2024-02-28T15:05:08;10.60;99.90
10417;DHT22;62605;49.432;8.680;2024-02-28T15:07:36;10.80;99.90
10417;DHT22;62605;49.432;8.680;2024-02-28T15:10:07;10.90;99.90
10417;DHT22;62605;49.432;8.680;2024-02-28T15:12:35;10.80;99.90
10417;DHT22;62605;49.432;8.680;2024-02-28T15:15:04;10.80;99.90
10417;DHT22;62605;49.432;8.680;2024-02-28T15:17:31;10.80;99.90
10417;DHT22;62605;49.432;8.680;2024-02-28T15:19:59;10.70;99.90
10417;DHT22;62605;49.432;8.680;2024-02-28T15:22:28;10.70;99.90
10417;DHT22;62605;49.432;8.680;2024-02-28T15:24:55;10.60;99.90
10417;DHT22;62605;49.432;8.680;2024-02-28T15:27:24;10.60;99.90
10417;DHT22;62605;49.432;8.680;2024-02-28T15:29:52;10.60;99.90
10417;DHT22;62605;49.432;8.680;2024-02-28T15:32:20;10.50;99.90
10417;DHT22;62605;49.432;8.680;2024-02-28T15:34:47;10.50;99.90
10417;DHT22;62605;49.432;8.680;2024-02-28T15:37:21;10.40;99.90
10417;DHT22;62605;49.432;8.680;2024-02-28T15:39:55;10.50;99.90
10417;DHT22;62605;49.432;8.680;2024-02-28T15:42:24;10.60;99.90
10417;DHT22;62605;49.432;8.680;2024-02-28T15:44:51;10.60;99.90
10417;DHT22;62605;49.432;8.680;2024-02-28T15:47:20;10.70;99.90
10417;DHT22;62605;49.432;8.680;2024-02-28T15:49:49;10.70;99.90